sensor_id;sensor_type;location;lat;lon;timestamp;temperature;humidity
4390;DHT22;2209;48.982;8.406;2022-07-06T00:02:21;25.30;60.20
4390;DHT22;2209;48.982;8.406;2022-07-06T00:04:43;25.30;60.20
4390;DHT22;2209;48.982;8.406;2022-07-06T00:07:05;25.30;60.40
4390;DHT22;2209;48.982;8.406;2022-07-06T00:09:30;25.30;60.00
4390;DHT22;2209;48.982;8.406;2022-07-06T00:11:53;25.20;60.30
4390;DHT22;2209;48.982;8.406;2022-07-06T00:14:15;25.20;60.50
4390;DHT22;2209;48.982;8.406;2022-07-06T00:16:43;25.20;60.40
4390;DHT22;2209;48.982;8.406;2022-07-06T00:19:07;25.20;60.60
4390;DHT22;2209;48.982;8.406;2022-07-06T00:21:29;25.20;60.10
4390;DHT22;2209;48.982;8.406;2022-07-06T00:23:53;25.20;60.20
4390;DHT22;2209;48.982;8.406;2022-07-06T00:26:16;25.20;60.10
4390;DHT22;2209;48.982;8.406;2022-07-06T00:28:39;25.20;60.50
4390;DHT22;2209;48.982;8.406;2022-07-06T00:31:01;25.10;60.70
4390;DHT22;2209;48.982;8.406;2022-07-06T00:33:23;25.10;60.90
4390;DHT22;2209;48.982;8.406;2022-07-06T00:35:45;25.10;61.80
4390;DHT22;2209;48.982;8.406;2022-07-06T00:38:07;25.10;62.20
4390;DHT22;2209;48.982;8.406;2022-07-06T00:40:30;25.10;62.50
4390;DHT22;2209;48.982;8.406;2022-07-06T00:42:52;25.10;63.10
4390;DHT22;2209;48.982;8.406;2022-07-06T00:45:17;25.00;63.70
4390;DHT22;2209;48.982;8.406;2022-07-06T00:47:39;25.00;64.10
4390;DHT22;2209;48.982;8.406;2022-07-06T00:50:02;25.00;64.50
4390;DHT22;2209;48.982;8.406;2022-07-06T00:52:39;25.00;64.30
4390;DHT22;2209;48.982;8.406;2022-07-06T00:55:01;24.90;64.40
4390;DHT22;2209;48.982;8.406;2022-07-06T00:57:23;24.90;64.80
4390;DHT22;2209;48.982;8.406;2022-07-06T00:59:45;24.90;64.40
4390;DHT22;2209;48.982;8.406;2022-07-06T01:02:09;24.90;64.00
4390;DHT22;2209;48.982;8.406;2022-07-06T01:04:31;24.80;64.20
4390;DHT22;2209;48.982;8.406;2022-07-06T01:06:53;24.80;63.70
4390;DHT22;2209;48.982;8.406;2022-07-06T01:09:16;24.80;63.70
4390;DHT22;2209;48.982;8.406;2022-07-06T01:11:38;24.70;64.10
4390;DHT22;2209;48.982;8.406;2022-07-06T01:14:01;24.70;65.10
4390;DHT22;2209;48.982;8.406;2022-07-06T01:16:23;24.70;65.40
4390;DHT22;2209;48.982;8.406;2022-07-06T01:22:04;24.70;65.90
4390;DHT22;2209;48.982;8.406;2022-07-06T01:24:27;24.60;64.70
4390;DHT22;2209;48.982;8.406;2022-07-06T01:26:50;24.60;64.80
4390;DHT22;2209;48.982;8.406;2022-07-06T01:29:12;24.50;64.20
4390;DHT22;2209;48.982;8.406;2022-07-06T01:31:46;24.40;64.80
4390;DHT22;2209;48.982;8.406;2022-07-06T01:34:09;24.30;65.50
4390;DHT22;2209;48.982;8.406;2022-07-06T01:36:32;24.30;66.50
4390;DHT22;2209;48.982;8.406;2022-07-06T01:38:56;24.30;66.80
4390;DHT22;2209;48.982;8.406;2022-07-06T01:41:20;24.30;67.20
4390;DHT22;2209;48.982;8.406;2022-07-06T01:43:43;24.30;67.50
4390;DHT22;2209;48.982;8.406;2022-07-06T01:46:06;24.30;67.70
4390;DHT22;2209;48.982;8.406;2022-07-06T01:48:28;24.30;67.50
4390;DHT22;2209;48.982;8.406;2022-07-06T01:50:51;24.30;67.70
4390;DHT22;2209;48.982;8.406;2022-07-06T01:53:13;24.30;67.80
4390;DHT22;2209;48.982;8.406;2022-07-06T01:55:37;24.30;66.40
4390;DHT22;2209;48.982;8.406;2022-07-06T01:57:59;24.20;66.80
4390;DHT22;2209;48.982;8.406;2022-07-06T02:00:21;24.20;67.20
4390;DHT22;2209;48.982;8.406;2022-07-06T02:02:43;24.20;67.40
4390;DHT22;2209;48.982;8.406;2022-07-06T02:05:05;24.10;67.70
4390;DHT22;2209;48.982;8.406;2022-07-06T02:07:27;24.20;67.50
4390;DHT22;2209;48.982;8.406;2022-07-06T02:09:49;24.10;67.20
4390;DHT22;2209;48.982;8.406;2022-07-06T02:12:13;24.10;67.60
4390;DHT22;2209;48.982;8.406;2022-07-06T02:14:35;24.10;67.50
4390;DHT22;2209;48.982;8.406;2022-07-06T02:16:59;24.10;67.80
4390;DHT22;2209;48.982;8.406;2022-07-06T02:19:21;24.10;68.20
4390;DHT22;2209;48.982;8.406;2022-07-06T02:21:43;24.10;68.40
4390;DHT22;2209;48.982;8.406;2022-07-06T02:24:05;24.10;68.60
4390;DHT22;2209;48.982;8.406;2022-07-06T02:26:27;24.10;68.70
4390;DHT22;2209;48.982;8.406;2022-07-06T02:28:51;24.10;69.00
4390;DHT22;2209;48.982;8.406;2022-07-06T02:31:13;24.00;68.60
4390;DHT22;2209;48.982;8.406;2022-07-06T02:33:36;24.00;69.00
4390;DHT22;2209;48.982;8.406;2022-07-06T02:35:58;24.00;69.30
4390;DHT22;2209;48.982;8.406;2022-07-06T02:38:20;23.90;69.10
4390;DHT22;2209;48.982;8.406;2022-07-06T02:40:42;23.90;69.00
4390;DHT22;2209;48.982;8.406;2022-07-06T02:43:04;23.90;69.00
4390;DHT22;2209;48.982;8.406;2022-07-06T02:45:28;23.90;69.10
4390;DHT22;2209;48.982;8.406;2022-07-06T02:47:50;23.90;69.10
4390;DHT22;2209;48.982;8.406;2022-07-06T02:50:13;23.90;69.20
4390;DHT22;2209;48.982;8.406;2022-07-06T02:52:36;23.80;69.00
4390;DHT22;2209;48.982;8.406;2022-07-06T02:54:58;23.80;69.10
4390;DHT22;2209;48.982;8.406;2022-07-06T02:57:20;23.80;69.10
4390;DHT22;2209;48.982;8.406;2022-07-06T02:59:42;23.80;69.40
4390;DHT22;2209;48.982;8.406;2022-07-06T03:02:06;23.80;69.70
4390;DHT22;2209;48.982;8.406;2022-07-06T03:04:28;23.80;69.70
4390;DHT22;2209;48.982;8.406;2022-07-06T03:06:50;23.80;69.80
4390;DHT22;2209;48.982;8.406;2022-07-06T03:09:12;23.80;70.10
4390;DHT22;2209;48.982;8.406;2022-07-06T03:11:34;23.70;70.30
4390;DHT22;2209;48.982;8.406;2022-07-06T03:13:57;23.70;70.60
4390;DHT22;2209;48.982;8.406;2022-07-06T03:16:19;23.70;70.70
4390;DHT22;2209;48.982;8.406;2022-07-06T03:18:42;23.70;70.70
4390;DHT22;2209;48.982;8.406;2022-07-06T03:21:05;23.70;70.80
4390;DHT22;2209;48.982;8.406;2022-07-06T03:23:27;23.60;70.90
4390;DHT22;2209;48.982;8.406;2022-07-06T03:25:49;23.60;71.00
4390;DHT22;2209;48.982;8.406;2022-07-06T03:28:11;23.50;71.00
4390;DHT22;2209;48.982;8.406;2022-07-06T03:30:33;23.50;71.10
4390;DHT22;2209;48.982;8.406;2022-07-06T03:32:55;23.50;71.00
4390;DHT22;2209;48.982;8.406;2022-07-06T03:35:18;23.50;70.70
4390;DHT22;2209;48.982;8.406;2022-07-06T03:37:41;23.40;70.80
4390;DHT22;2209;48.982;8.406;2022-07-06T03:40:03;23.40;71.10
4390;DHT22;2209;48.982;8.406;2022-07-06T03:42:26;23.40;71.20
4390;DHT22;2209;48.982;8.406;2022-07-06T03:44:48;23.40;71.30
4390;DHT22;2209;48.982;8.406;2022-07-06T03:47:10;23.40;71.70
4390;DHT22;2209;48.982;8.406;2022-07-06T03:49:32;23.40;71.80
4390;DHT22;2209;48.982;8.406;2022-07-06T03:51:55;23.30;71.90
4390;DHT22;2209;48.982;8.406;2022-07-06T03:54:19;23.30;72.00
4390;DHT22;2209;48.982;8.406;2022-07-06T03:56:41;23.30;72.10
4390;DHT22;2209;48.982;8.406;2022-07-06T03:59:04;23.30;72.20
4390;DHT22;2209;48.982;8.406;2022-07-06T04:01:26;23.20;72.20
4390;DHT22;2209;48.982;8.406;2022-07-06T04:03:49;23.20;72.40
4390;DHT22;2209;48.982;8.406;2022-07-06T04:06:11;23.20;72.70
4390;DHT22;2209;48.982;8.406;2022-07-06T04:08:38;23.20;72.70
4390;DHT22;2209;48.982;8.406;2022-07-06T04:11:00;23.10;72.50
4390;DHT22;2209;48.982;8.406;2022-07-06T04:13:22;23.10;72.60
4390;DHT22;2209;48.982;8.406;2022-07-06T04:15:44;23.10;72.80
4390;DHT22;2209;48.982;8.406;2022-07-06T04:18:06;23.10;72.70
4390;DHT22;2209;48.982;8.406;2022-07-06T04:20:28;23.10;72.80
4390;DHT22;2209;48.982;8.406;2022-07-06T04:22:51;23.10;72.90
4390;DHT22;2209;48.982;8.406;2022-07-06T04:25:14;23.10;72.80
4390;DHT22;2209;48.982;8.406;2022-07-06T04:27:36;23.00;73.10
4390;DHT22;2209;48.982;8.406;2022-07-06T04:29:58;23.00;73.40
4390;DHT22;2209;48.982;8.406;2022-07-06T04:32:21;22.90;73.50
4390;DHT22;2209;48.982;8.406;2022-07-06T04:34:43;22.90;73.60
4390;DHT22;2209;48.982;8.406;2022-07-06T04:37:05;22.90;73.60
4390;DHT22;2209;48.982;8.406;2022-07-06T04:39:27;22.90;73.50
4390;DHT22;2209;48.982;8.406;2022-07-06T04:41:53;22.90;73.50
4390;DHT22;2209;48.982;8.406;2022-07-06T04:44:15;22.90;72.20
4390;DHT22;2209;48.982;8.406;2022-07-06T04:46:37;22.80;70.20
4390;DHT22;2209;48.982;8.406;2022-07-06T04:48:59;22.70;70.00
4390;DHT22;2209;48.982;8.406;2022-07-06T04:51:21;22.70;70.10
4390;DHT22;2209;48.982;8.406;2022-07-06T04:53:43;22.70;70.30
4390;DHT22;2209;48.982;8.406;2022-07-06T04:56:06;22.70;69.90
4390;DHT22;2209;48.982;8.406;2022-07-06T04:58:30;22.70;69.90
4390;DHT22;2209;48.982;8.406;2022-07-06T05:00:52;22.80;69.80
4390;DHT22;2209;48.982;8.406;2022-07-06T05:03:14;22.80;69.40
4390;DHT22;2209;48.982;8.406;2022-07-06T05:05:37;22.80;69.10
4390;DHT22;2209;48.982;8.406;2022-07-06T05:07:59;22.80;69.40
4390;DHT22;2209;48.982;8.406;2022-07-06T05:10:22;22.70;69.80
4390;DHT22;2209;48.982;8.406;2022-07-06T05:12:44;22.70;69.40
4390;DHT22;2209;48.982;8.406;2022-07-06T05:15:08;22.70;69.60
4390;DHT22;2209;48.982;8.406;2022-07-06T05:17:31;22.60;69.90
4390;DHT22;2209;48.982;8.406;2022-07-06T05:19:53;22.60;70.00
4390;DHT22;2209;48.982;8.406;2022-07-06T05:22:15;22.60;70.40
4390;DHT22;2209;48.982;8.406;2022-07-06T05:24:37;22.60;70.50
4390;DHT22;2209;48.982;8.406;2022-07-06T05:26:59;22.60;70.40
4390;DHT22;2209;48.982;8.406;2022-07-06T05:29:21;22.60;70.30
4390;DHT22;2209;48.982;8.406;2022-07-06T05:31:44;22.50;70.10
4390;DHT22;2209;48.982;8.406;2022-07-06T05:34:06;22.50;70.00
4390;DHT22;2209;48.982;8.406;2022-07-06T05:36:28;22.40;70.20
4390;DHT22;2209;48.982;8.406;2022-07-06T05:38:50;22.40;70.60
4390;DHT22;2209;48.982;8.406;2022-07-06T05:41:13;22.40;70.30
4390;DHT22;2209;48.982;8.406;2022-07-06T05:43:37;22.40;70.10
4390;DHT22;2209;48.982;8.406;2022-07-06T05:45:59;22.30;70.80
4390;DHT22;2209;48.982;8.406;2022-07-06T05:48:22;22.30;70.70
4390;DHT22;2209;48.982;8.406;2022-07-06T05:51:13;22.30;69.70
4390;DHT22;2209;48.982;8.406;2022-07-06T05:53:36;21.90;70.70
4390;DHT22;2209;48.982;8.406;2022-07-06T05:55:58;21.80;71.10
4390;DHT22;2209;48.982;8.406;2022-07-06T05:58:20;21.80;71.70
4390;DHT22;2209;48.982;8.406;2022-07-06T06:00:42;21.70;72.10
4390;DHT22;2209;48.982;8.406;2022-07-06T06:03:04;21.80;72.50
4390;DHT22;2209;48.982;8.406;2022-07-06T06:05:27;21.80;72.40
4390;DHT22;2209;48.982;8.406;2022-07-06T06:07:50;21.90;72.20
4390;DHT22;2209;48.982;8.406;2022-07-06T06:10:14;22.00;72.40
4390;DHT22;2209;48.982;8.406;2022-07-06T06:12:36;22.10;72.50
4390;DHT22;2209;48.982;8.406;2022-07-06T06:14:59;22.10;72.30
4390;DHT22;2209;48.982;8.406;2022-07-06T06:17:21;22.20;72.00
4390;DHT22;2209;48.982;8.406;2022-07-06T06:19:43;22.20;71.90
4390;DHT22;2209;48.982;8.406;2022-07-06T06:22:06;22.30;70.80
4390;DHT22;2209;48.982;8.406;2022-07-06T06:24:28;22.20;70.80
4390;DHT22;2209;48.982;8.406;2022-07-06T06:26:50;22.10;71.00
4390;DHT22;2209;48.982;8.406;2022-07-06T06:29:13;22.00;70.60
4390;DHT22;2209;48.982;8.406;2022-07-06T06:31:35;21.90;71.00
4390;DHT22;2209;48.982;8.406;2022-07-06T06:33:58;21.90;71.30
4390;DHT22;2209;48.982;8.406;2022-07-06T06:36:20;21.90;71.80
4390;DHT22;2209;48.982;8.406;2022-07-06T06:38:43;21.90;71.80
4390;DHT22;2209;48.982;8.406;2022-07-06T06:41:06;21.80;72.00
4390;DHT22;2209;48.982;8.406;2022-07-06T06:43:28;21.80;72.20
4390;DHT22;2209;48.982;8.406;2022-07-06T06:45:50;21.90;71.50
4390;DHT22;2209;48.982;8.406;2022-07-06T06:48:13;21.90;71.10
4390;DHT22;2209;48.982;8.406;2022-07-06T06:50:35;21.90;71.20
4390;DHT22;2209;48.982;8.406;2022-07-06T06:52:57;21.80;71.10
4390;DHT22;2209;48.982;8.406;2022-07-06T06:55:21;21.70;71.40
4390;DHT22;2209;48.982;8.406;2022-07-06T06:57:43;21.60;72.70
4390;DHT22;2209;48.982;8.406;2022-07-06T07:00:06;21.50;73.40
4390;DHT22;2209;48.982;8.406;2022-07-06T07:02:28;21.50;72.70
4390;DHT22;2209;48.982;8.406;2022-07-06T07:04:50;21.40;72.50
4390;DHT22;2209;48.982;8.406;2022-07-06T07:07:12;21.50;72.70
4390;DHT22;2209;48.982;8.406;2022-07-06T07:09:35;21.50;72.50
4390;DHT22;2209;48.982;8.406;2022-07-06T07:12:00;21.50;72.80
4390;DHT22;2209;48.982;8.406;2022-07-06T07:14:22;21.50;72.70
4390;DHT22;2209;48.982;8.406;2022-07-06T07:16:44;21.50;72.60
4390;DHT22;2209;48.982;8.406;2022-07-06T07:19:07;21.40;73.20
4390;DHT22;2209;48.982;8.406;2022-07-06T07:21:31;21.30;73.70
4390;DHT22;2209;48.982;8.406;2022-07-06T07:23:53;21.20;73.50
4390;DHT22;2209;48.982;8.406;2022-07-06T07:26:15;21.00;73.80
4390;DHT22;2209;48.982;8.406;2022-07-06T07:28:38;20.90;74.30
4390;DHT22;2209;48.982;8.406;2022-07-06T07:31:01;20.80;75.50
4390;DHT22;2209;48.982;8.406;2022-07-06T07:33:23;20.80;76.50
4390;DHT22;2209;48.982;8.406;2022-07-06T07:35:45;20.80;76.50
4390;DHT22;2209;48.982;8.406;2022-07-06T07:38:07;20.90;75.80
4390;DHT22;2209;48.982;8.406;2022-07-06T07:40:31;21.10;74.90
4390;DHT22;2209;48.982;8.406;2022-07-06T07:42:54;21.20;75.00
4390;DHT22;2209;48.982;8.406;2022-07-06T07:45:17;21.10;75.60
4390;DHT22;2209;48.982;8.406;2022-07-06T07:47:39;21.10;75.60
4390;DHT22;2209;48.982;8.406;2022-07-06T07:50:03;21.00;75.10
4390;DHT22;2209;48.982;8.406;2022-07-06T07:52:25;21.00;75.80
4390;DHT22;2209;48.982;8.406;2022-07-06T07:54:53;20.90;75.80
4390;DHT22;2209;48.982;8.406;2022-07-06T07:57:17;20.90;76.20
4390;DHT22;2209;48.982;8.406;2022-07-06T07:59:42;20.80;75.70
4390;DHT22;2209;48.982;8.406;2022-07-06T08:02:09;20.80;76.20
4390;DHT22;2209;48.982;8.406;2022-07-06T08:04:32;20.70;76.90
4390;DHT22;2209;48.982;8.406;2022-07-06T08:06:54;20.70;76.30
4390;DHT22;2209;48.982;8.406;2022-07-06T08:09:16;20.70;75.80
4390;DHT22;2209;48.982;8.406;2022-07-06T08:11:39;20.70;75.60
4390;DHT22;2209;48.982;8.406;2022-07-06T08:14:01;20.70;75.50
4390;DHT22;2209;48.982;8.406;2022-07-06T08:16:23;20.70;75.90
4390;DHT22;2209;48.982;8.406;2022-07-06T08:18:47;20.60;75.50
4390;DHT22;2209;48.982;8.406;2022-07-06T08:21:09;20.50;75.90
4390;DHT22;2209;48.982;8.406;2022-07-06T08:23:32;20.50;75.70
4390;DHT22;2209;48.982;8.406;2022-07-06T08:25:55;20.40;75.40
4390;DHT22;2209;48.982;8.406;2022-07-06T08:28:19;20.30;76.10
4390;DHT22;2209;48.982;8.406;2022-07-06T08:30:41;20.30;76.40
4390;DHT22;2209;48.982;8.406;2022-07-06T08:33:03;20.50;76.10
4390;DHT22;2209;48.982;8.406;2022-07-06T08:35:27;20.50;76.70
4390;DHT22;2209;48.982;8.406;2022-07-06T08:37:49;20.60;76.80
4390;DHT22;2209;48.982;8.406;2022-07-06T08:40:11;20.70;75.80
4390;DHT22;2209;48.982;8.406;2022-07-06T08:42:34;20.70;75.40
4390;DHT22;2209;48.982;8.406;2022-07-06T08:44:59;20.80;74.20
4390;DHT22;2209;48.982;8.406;2022-07-06T08:47:21;20.80;75.20
4390;DHT22;2209;48.982;8.406;2022-07-06T08:49:44;20.80;75.20
4390;DHT22;2209;48.982;8.406;2022-07-06T08:52:09;20.70;74.90
4390;DHT22;2209;48.982;8.406;2022-07-06T08:54:31;20.70;74.90
4390;DHT22;2209;48.982;8.406;2022-07-06T08:56:54;20.70;75.10
4390;DHT22;2209;48.982;8.406;2022-07-06T08:59:16;20.70;75.30
4390;DHT22;2209;48.982;8.406;2022-07-06T09:01:38;20.70;75.10
4390;DHT22;2209;48.982;8.406;2022-07-06T09:04:03;20.80;75.10
4390;DHT22;2209;48.982;8.406;2022-07-06T09:06:27;20.80;75.60
4390;DHT22;2209;48.982;8.406;2022-07-06T09:08:53;20.80;74.50
4390;DHT22;2209;48.982;8.406;2022-07-06T09:11:15;20.80;74.30
4390;DHT22;2209;48.982;8.406;2022-07-06T09:13:39;20.70;74.30
4390;DHT22;2209;48.982;8.406;2022-07-06T09:16:09;20.60;74.90
4390;DHT22;2209;48.982;8.406;2022-07-06T09:18:36;20.70;74.70
4390;DHT22;2209;48.982;8.406;2022-07-06T09:20:58;20.70;74.40
4390;DHT22;2209;48.982;8.406;2022-07-06T09:23:23;20.60;74.90
4390;DHT22;2209;48.982;8.406;2022-07-06T09:25:48;20.70;75.00
4390;DHT22;2209;48.982;8.406;2022-07-06T09:28:11;20.70;74.30
4390;DHT22;2209;48.982;8.406;2022-07-06T09:30:33;20.80;74.50
4390;DHT22;2209;48.982;8.406;2022-07-06T09:33:01;20.90;75.10
4390;DHT22;2209;48.982;8.406;2022-07-06T09:35:25;20.80;75.10
4390;DHT22;2209;48.982;8.406;2022-07-06T09:37:48;20.80;74.10
4390;DHT22;2209;48.982;8.406;2022-07-06T09:40:21;20.80;74.10
4390;DHT22;2209;48.982;8.406;2022-07-06T09:42:44;20.80;74.10
4390;DHT22;2209;48.982;8.406;2022-07-06T09:45:08;20.80;74.70
4390;DHT22;2209;48.982;8.406;2022-07-06T09:47:31;20.80;75.70
4390;DHT22;2209;48.982;8.406;2022-07-06T09:49:55;20.80;76.20
4390;DHT22;2209;48.982;8.406;2022-07-06T09:52:18;20.90;76.00
4390;DHT22;2209;48.982;8.406;2022-07-06T09:54:40;21.00;74.00
4390;DHT22;2209;48.982;8.406;2022-07-06T09:57:04;21.00;74.10
4390;DHT22;2209;48.982;8.406;2022-07-06T09:59:29;21.00;74.70
4390;DHT22;2209;48.982;8.406;2022-07-06T10:01:54;21.00;74.80
4390;DHT22;2209;48.982;8.406;2022-07-06T10:04:17;21.10;75.20
4390;DHT22;2209;48.982;8.406;2022-07-06T10:06:41;21.20;74.50
4390;DHT22;2209;48.982;8.406;2022-07-06T10:09:06;21.20;74.60
4390;DHT22;2209;48.982;8.406;2022-07-06T10:11:29;21.30;75.10
4390;DHT22;2209;48.982;8.406;2022-07-06T10:13:54;21.40;74.00
4390;DHT22;2209;48.982;8.406;2022-07-06T10:16:17;21.50;72.20
4390;DHT22;2209;48.982;8.406;2022-07-06T10:18:40;21.50;72.30
4390;DHT22;2209;48.982;8.406;2022-07-06T10:21:03;21.50;72.10
4390;DHT22;2209;48.982;8.406;2022-07-06T10:23:26;21.40;71.60
4390;DHT22;2209;48.982;8.406;2022-07-06T10:25:48;21.30;71.70
4390;DHT22;2209;48.982;8.406;2022-07-06T10:28:11;21.30;71.70
4390;DHT22;2209;48.982;8.406;2022-07-06T10:30:35;21.20;71.50
4390;DHT22;2209;48.982;8.406;2022-07-06T10:32:59;21.20;72.00
4390;DHT22;2209;48.982;8.406;2022-07-06T10:35:22;21.20;72.40
4390;DHT22;2209;48.982;8.406;2022-07-06T10:37:45;21.20;73.20
4390;DHT22;2209;48.982;8.406;2022-07-06T10:40:08;21.30;72.70
4390;DHT22;2209;48.982;8.406;2022-07-06T10:42:48;21.30;72.60
4390;DHT22;2209;48.982;8.406;2022-07-06T10:45:14;21.40;72.70
4390;DHT22;2209;48.982;8.406;2022-07-06T10:47:37;21.50;72.80
4390;DHT22;2209;48.982;8.406;2022-07-06T10:50:01;21.60;73.10
4390;DHT22;2209;48.982;8.406;2022-07-06T10:52:24;21.60;73.10
4390;DHT22;2209;48.982;8.406;2022-07-06T10:55:06;21.70;73.00
4390;DHT22;2209;48.982;8.406;2022-07-06T10:57:29;21.80;72.60
4390;DHT22;2209;48.982;8.406;2022-07-06T11:00:00;21.80;72.10
4390;DHT22;2209;48.982;8.406;2022-07-06T11:02:22;21.80;71.70
4390;DHT22;2209;48.982;8.406;2022-07-06T11:04:46;21.80;71.40
4390;DHT22;2209;48.982;8.406;2022-07-06T11:07:10;21.80;72.10
4390;DHT22;2209;48.982;8.406;2022-07-06T11:09:33;21.80;72.30
4390;DHT22;2209;48.982;8.406;2022-07-06T11:11:57;21.80;72.00
4390;DHT22;2209;48.982;8.406;2022-07-06T11:14:21;21.80;72.10
4390;DHT22;2209;48.982;8.406;2022-07-06T11:17:05;21.70;72.50
4390;DHT22;2209;48.982;8.406;2022-07-06T11:19:31;21.60;72.20
4390;DHT22;2209;48.982;8.406;2022-07-06T11:21:54;21.60;72.40
4390;DHT22;2209;48.982;8.406;2022-07-06T11:24:20;21.70;73.00
4390;DHT22;2209;48.982;8.406;2022-07-06T11:26:44;21.80;72.50
4390;DHT22;2209;48.982;8.406;2022-07-06T11:29:09;21.70;72.50
4390;DHT22;2209;48.982;8.406;2022-07-06T11:31:34;21.80;73.30
4390;DHT22;2209;48.982;8.406;2022-07-06T11:33:57;21.80;72.30
4390;DHT22;2209;48.982;8.406;2022-07-06T11:36:20;21.80;72.90
4390;DHT22;2209;48.982;8.406;2022-07-06T11:38:44;21.80;72.90
4390;DHT22;2209;48.982;8.406;2022-07-06T11:41:08;21.80;72.70
4390;DHT22;2209;48.982;8.406;2022-07-06T11:43:32;21.70;72.20
4390;DHT22;2209;48.982;8.406;2022-07-06T11:45:54;21.70;72.20
4390;DHT22;2209;48.982;8.406;2022-07-06T11:48:16;21.70;72.90
4390;DHT22;2209;48.982;8.406;2022-07-06T11:50:38;21.80;72.70
4390;DHT22;2209;48.982;8.406;2022-07-06T11:53:00;21.80;72.40
4390;DHT22;2209;48.982;8.406;2022-07-06T11:55:22;21.80;72.20
4390;DHT22;2209;48.982;8.406;2022-07-06T11:57:46;21.80;71.50
4390;DHT22;2209;48.982;8.406;2022-07-06T12:00:10;21.90;72.20
4390;DHT22;2209;48.982;8.406;2022-07-06T12:02:33;21.90;72.30
4390;DHT22;2209;48.982;8.406;2022-07-06T12:04:55;21.90;72.50
4390;DHT22;2209;48.982;8.406;2022-07-06T12:07:17;22.00;71.80
4390;DHT22;2209;48.982;8.406;2022-07-06T12:09:41;22.00;72.10
4390;DHT22;2209;48.982;8.406;2022-07-06T12:12:04;22.10;72.80
4390;DHT22;2209;48.982;8.406;2022-07-06T12:14:29;22.00;72.70
4390;DHT22;2209;48.982;8.406;2022-07-06T12:16:51;22.20;72.90
4390;DHT22;2209;48.982;8.406;2022-07-06T12:19:14;22.20;71.60
4390;DHT22;2209;48.982;8.406;2022-07-06T12:21:36;22.30;70.90
4390;DHT22;2209;48.982;8.406;2022-07-06T12:24:06;22.30;71.20
4390;DHT22;2209;48.982;8.406;2022-07-06T12:26:39;22.30;71.00
4390;DHT22;2209;48.982;8.406;2022-07-06T12:29:03;22.30;71.30
4390;DHT22;2209;48.982;8.406;2022-07-06T12:31:35;22.30;72.10
4390;DHT22;2209;48.982;8.406;2022-07-06T12:33:58;22.30;71.00
4390;DHT22;2209;48.982;8.406;2022-07-06T12:36:20;22.30;71.40
4390;DHT22;2209;48.982;8.406;2022-07-06T12:38:46;22.40;72.50
4390;DHT22;2209;48.982;8.406;2022-07-06T12:41:09;22.30;71.90
4390;DHT22;2209;48.982;8.406;2022-07-06T12:43:38;22.20;71.90
4390;DHT22;2209;48.982;8.406;2022-07-06T12:46:23;22.20;71.20
4390;DHT22;2209;48.982;8.406;2022-07-06T12:48:53;22.20;71.00
4390;DHT22;2209;48.982;8.406;2022-07-06T12:51:15;22.30;71.00
4390;DHT22;2209;48.982;8.406;2022-07-06T12:53:37;22.30;71.00
4390;DHT22;2209;48.982;8.406;2022-07-06T12:56:10;22.30;71.20
4390;DHT22;2209;48.982;8.406;2022-07-06T12:58:32;22.40;71.40
4390;DHT22;2209;48.982;8.406;2022-07-06T13:00:54;22.50;70.80
4390;DHT22;2209;48.982;8.406;2022-07-06T13:03:16;22.60;72.00
4390;DHT22;2209;48.982;8.406;2022-07-06T13:05:39;22.70;70.60
4390;DHT22;2209;48.982;8.406;2022-07-06T13:08:02;22.80;70.10
4390;DHT22;2209;48.982;8.406;2022-07-06T13:10:24;22.80;68.20
4390;DHT22;2209;48.982;8.406;2022-07-06T13:12:46;22.80;69.20
4390;DHT22;2209;48.982;8.406;2022-07-06T13:15:09;22.80;68.90
4390;DHT22;2209;48.982;8.406;2022-07-06T13:17:32;22.80;69.30
4390;DHT22;2209;48.982;8.406;2022-07-06T13:19:54;22.80;69.60
4390;DHT22;2209;48.982;8.406;2022-07-06T13:22:18;22.80;69.60
4390;DHT22;2209;48.982;8.406;2022-07-06T13:24:40;22.90;67.00
4390;DHT22;2209;48.982;8.406;2022-07-06T13:27:03;22.90;65.90
4390;DHT22;2209;48.982;8.406;2022-07-06T13:29:25;22.90;66.20
4390;DHT22;2209;48.982;8.406;2022-07-06T13:31:48;22.90;64.80
4390;DHT22;2209;48.982;8.406;2022-07-06T13:34:10;22.90;64.80
4390;DHT22;2209;48.982;8.406;2022-07-06T13:36:34;23.00;63.70
4390;DHT22;2209;48.982;8.406;2022-07-06T13:38:58;23.00;64.80
4390;DHT22;2209;48.982;8.406;2022-07-06T13:41:20;23.00;65.50
4390;DHT22;2209;48.982;8.406;2022-07-06T13:43:42;23.10;65.00
4390;DHT22;2209;48.982;8.406;2022-07-06T13:46:04;23.10;65.30
4390;DHT22;2209;48.982;8.406;2022-07-06T13:48:26;23.10;65.30
4390;DHT22;2209;48.982;8.406;2022-07-06T13:50:48;23.10;65.00
4390;DHT22;2209;48.982;8.406;2022-07-06T13:53:11;23.10;64.80
4390;DHT22;2209;48.982;8.406;2022-07-06T13:55:35;23.10;65.00
4390;DHT22;2209;48.982;8.406;2022-07-06T13:57:57;23.10;65.20
4390;DHT22;2209;48.982;8.406;2022-07-06T14:00:19;23.20;64.50
4390;DHT22;2209;48.982;8.406;2022-07-06T14:02:41;23.20;64.40
4390;DHT22;2209;48.982;8.406;2022-07-06T14:05:04;23.30;63.50
4390;DHT22;2209;48.982;8.406;2022-07-06T14:07:28;23.40;63.60
4390;DHT22;2209;48.982;8.406;2022-07-06T14:09:50;23.30;63.10
4390;DHT22;2209;48.982;8.406;2022-07-06T14:12:14;23.30;62.60
4390;DHT22;2209;48.982;8.406;2022-07-06T14:14:36;23.40;62.50
4390;DHT22;2209;48.982;8.406;2022-07-06T14:16:58;23.40;62.80
4390;DHT22;2209;48.982;8.406;2022-07-06T14:19:20;23.40;63.00
4390;DHT22;2209;48.982;8.406;2022-07-06T14:21:42;23.40;62.90
4390;DHT22;2209;48.982;8.406;2022-07-06T14:24:07;23.50;62.80
4390;DHT22;2209;48.982;8.406;2022-07-06T14:26:29;23.50;62.50
4390;DHT22;2209;48.982;8.406;2022-07-06T14:28:52;23.70;62.40
4390;DHT22;2209;48.982;8.406;2022-07-06T14:31:15;23.80;61.60
4390;DHT22;2209;48.982;8.406;2022-07-06T14:33:37;23.90;61.80
4390;DHT22;2209;48.982;8.406;2022-07-06T14:35:59;24.00;60.80
4390;DHT22;2209;48.982;8.406;2022-07-06T14:38:21;24.00;60.70
4390;DHT22;2209;48.982;8.406;2022-07-06T14:40:44;24.00;60.60
4390;DHT22;2209;48.982;8.406;2022-07-06T14:43:06;24.10;60.40
4390;DHT22;2209;48.982;8.406;2022-07-06T14:45:30;24.20;59.80
4390;DHT22;2209;48.982;8.406;2022-07-06T14:47:52;24.20;59.70
4390;DHT22;2209;48.982;8.406;2022-07-06T14:50:14;24.30;59.50
4390;DHT22;2209;48.982;8.406;2022-07-06T14:52:36;24.30;59.20
4390;DHT22;2209;48.982;8.406;2022-07-06T14:54:58;24.30;59.00
4390;DHT22;2209;48.982;8.406;2022-07-06T14:57:21;24.30;58.70
4390;DHT22;2209;48.982;8.406;2022-07-06T14:59:45;24.30;58.40
4390;DHT22;2209;48.982;8.406;2022-07-06T15:02:08;24.30;58.20
4390;DHT22;2209;48.982;8.406;2022-07-06T15:04:31;24.30;58.30
4390;DHT22;2209;48.982;8.406;2022-07-06T15:06:54;24.40;58.10
4390;DHT22;2209;48.982;8.406;2022-07-06T15:09:16;24.30;58.20
4390;DHT22;2209;48.982;8.406;2022-07-06T15:11:38;24.30;58.30
4390;DHT22;2209;48.982;8.406;2022-07-06T15:14:00;24.40;57.80
4390;DHT22;2209;48.982;8.406;2022-07-06T15:16:23;24.40;57.90
4390;DHT22;2209;48.982;8.406;2022-07-06T15:18:47;24.30;58.10
4390;DHT22;2209;48.982;8.406;2022-07-06T15:21:09;24.30;57.90
4390;DHT22;2209;48.982;8.406;2022-07-06T15:23:31;24.30;58.40
4390;DHT22;2209;48.982;8.406;2022-07-06T15:25:53;24.40;57.90
4390;DHT22;2209;48.982;8.406;2022-07-06T15:28:15;24.30;58.00
4390;DHT22;2209;48.982;8.406;2022-07-06T15:30:40;24.40;56.80
4390;DHT22;2209;48.982;8.406;2022-07-06T15:33:02;24.40;57.20
4390;DHT22;2209;48.982;8.406;2022-07-06T15:35:26;24.40;57.30
4390;DHT22;2209;48.982;8.406;2022-07-06T15:37:48;24.50;57.40
4390;DHT22;2209;48.982;8.406;2022-07-06T15:40:10;24.60;56.40